createdAt,value
2019-04-03T00:09:55.378Z,7.00
2019-04-03T00:20:00.894Z,7.97
2019-04-03T00:30:09.510Z,8.00
2019-04-03T00:40:15.236Z,9.90
2019-04-03T00:50:20.494Z,8.60
2019-04-03T01:00:26.395Z,8.77
2019-04-03T01:10:32.412Z,6.43
2019-04-03T01:20:37.805Z,8.17
2019-04-03T01:30:44.230Z,8.63
2019-04-03T01:40:50.670Z,9.73
2019-04-03T01:50:59.358Z,9.75
2019-04-03T02:01:06.324Z,9.17
2019-04-03T02:11:11.920Z,7.12
2019-04-03T02:21:17.082Z,10.25
2019-04-03T02:31:22.244Z,9.70
2019-04-03T02:41:27.753Z,10.93
2019-04-03T02:51:33.266Z,4.63
2019-04-03T03:01:39.838Z,10.27
2019-04-03T03:11:46.154Z,11.73
2019-04-03T03:21:53.761Z,11.40
2019-04-03T03:32:11.641Z,7.33
2019-04-03T03:42:06.846Z,8.43
2019-04-03T03:52:14.400Z,10.60
2019-04-03T04:02:20.493Z,12.23
2019-04-03T04:12:25.847Z,14.63
2019-04-03T04:22:31.571Z,13.27
2019-04-03T04:32:36.915Z,12.40
2019-04-03T04:42:42.165Z,11.97
2019-04-03T04:52:47.300Z,10.13
2019-04-03T05:02:52.598Z,12.17
2019-04-03T05:12:58.331Z,14.23
2019-04-03T05:23:03.840Z,12.47
2019-04-03T05:33:11.233Z,11.87
2019-04-03T05:43:17.212Z,8.80
2019-04-03T05:53:22.405Z,12.00
2019-04-03T06:03:39.231Z,11.70
2019-04-03T06:13:34.732Z,6.43
2019-04-03T06:23:40.126Z,10.93
2019-04-03T06:33:45.450Z,13.62
2019-04-03T06:43:53.989Z,7.10
2019-04-03T06:53:59.621Z,11.07
2019-04-03T07:04:06.448Z,13.03
2019-04-03T07:14:12.214Z,13.07
2019-04-03T07:24:17.652Z,12.00
2019-04-03T07:34:23.171Z,10.28
2019-04-03T07:44:29.828Z,11.25
2019-04-03T07:54:35.050Z,10.30
2019-04-03T08:04:40.340Z,11.85
2019-04-03T08:14:45.520Z,11.55
2019-04-03T08:24:53.098Z,8.13
2019-04-03T08:34:57.953Z,10.88
2019-04-03T08:45:05.768Z,12.75
2019-04-03T08:55:12.864Z,12.37
2019-04-03T09:05:19.358Z,9.53
2019-04-03T09:15:25.846Z,10.08
2019-04-03T09:25:33.029Z,7.97
2019-04-03T09:35:38.750Z,10.88
2019-04-03T09:45:44.747Z,10.45
2019-04-03T09:55:49.979Z,9.18
2019-04-03T10:05:55.380Z,13.22
2019-04-03T10:16:03.220Z,11.90
2019-04-03T10:26:08.773Z,10.75
2019-04-03T10:36:17.272Z,11.45
2019-04-03T10:46:21.289Z,7.30
2019-04-03T10:56:26.733Z,13.40
2019-04-03T11:06:32.366Z,12.03
2019-04-03T11:16:39.399Z,9.85
2019-04-03T11:26:45.203Z,8.13
2019-04-03T11:36:50.753Z,9.05
2019-04-03T11:46:56.325Z,9.13
2019-04-03T11:57:02.731Z,9.03
2019-04-03T12:07:07.799Z,9.08
2019-04-03T12:17:12.946Z,12.03
2019-04-03T12:27:18.400Z,11.33
2019-04-03T12:37:25.059Z,12.15
2019-04-03T12:47:30.675Z,11.35
2019-04-03T12:57:38.939Z,10.55
2019-04-03T13:07:45.737Z,10.48
2019-04-03T13:17:50.229Z,8.65
2019-04-03T13:27:55.438Z,8.53
2019-04-03T13:38:00.854Z,7.05
2019-04-03T13:48:06.539Z,9.88
2019-04-03T13:58:12.376Z,8.87
2019-04-03T14:08:17.924Z,9.85
2019-04-03T14:18:23.832Z,4.50
2019-04-03T14:28:29.515Z,11.15
2019-04-03T14:38:35.441Z,6.08
2019-04-03T14:48:41.632Z,9.70
2019-04-03T14:58:47.267Z,7.03
2019-04-03T15:08:54.688Z,7.83
2019-04-03T15:19:02.089Z,11.35
2019-04-03T15:29:07.795Z,12.80
2019-04-03T15:39:16.499Z,11.23
2019-04-03T15:49:21.882Z,9.58
2019-04-03T15:59:29.681Z,10.23
2019-04-03T16:09:34.798Z,9.23
2019-04-03T16:19:40.861Z,11.18
2019-04-03T16:29:48.145Z,10.70
2019-04-03T16:39:53.752Z,10.68
2019-04-03T16:50:00.341Z,10.70
2019-04-03T17:00:10.158Z,11.03
2019-04-03T17:10:16.110Z,8.03
2019-04-03T17:20:22.969Z,12.03
2019-04-03T17:30:29.633Z,11.07
2019-04-03T17:40:36.570Z,10.97
2019-04-03T17:50:42.768Z,10.73
2019-04-03T18:00:51.673Z,13.10
2019-04-03T18:10:55.990Z,11.87
2019-04-03T18:21:03.489Z,10.53
2019-04-03T18:31:09.443Z,13.07
2019-04-03T18:41:16.983Z,12.15
2019-04-03T18:51:22.848Z,12.55
2019-04-03T19:01:28.788Z,9.03
2019-04-03T19:11:35.704Z,11.27
2019-04-03T19:21:41.672Z,8.43
2019-04-03T19:31:47.595Z,12.20
2019-04-03T19:41:53.377Z,12.90
2019-04-03T19:51:58.960Z,9.83
2019-04-03T20:02:04.691Z,13.20
2019-04-03T20:12:10.502Z,13.27
2019-04-03T20:22:16.219Z,11.05
2019-04-03T20:32:22.047Z,14.17
2019-04-03T20:42:27.928Z,16.47
2019-04-03T20:52:33.633Z,16.87
2019-04-03T21:02:41.203Z,14.67
2019-04-03T21:12:46.277Z,14.77
2019-04-03T21:22:51.648Z,16.17
2019-04-03T21:32:58.011Z,16.87
2019-04-03T21:43:03.818Z,13.43
2019-04-03T21:53:09.130Z,16.00
2019-04-03T22:03:14.427Z,15.93
2019-04-03T22:13:19.929Z,16.70
2019-04-03T22:23:25.151Z,16.37
2019-04-03T22:33:31.374Z,15.67
2019-04-03T22:43:36.588Z,16.17
2019-04-03T22:53:42.234Z,14.60
2019-04-03T23:03:49.261Z,15.97
2019-04-03T23:13:54.747Z,16.07
2019-04-03T23:24:00.006Z,16.87
2019-04-03T23:34:05.324Z,15.37
2019-04-03T23:44:11.662Z,13.43
2019-04-03T23:54:18.031Z,14.53
